sensor_id;sensor_type;location;lat;lon;timestamp;P1;durP1;ratioP1;P2;durP2;ratioP2
68247;SDS011;55064;49.636;12.164;2022-08-18T00:01:22;10.88;;;6.55;;
68247;SDS011;55064;49.636;12.164;2022-08-18T00:03:51;11.40;;;5.90;;
68247;SDS011;55064;49.636;12.164;2022-08-18T00:06:16;9.80;;;6.13;;
68247;SDS011;55064;49.636;12.164;2022-08-18T00:08:42;12.20;;;6.17;;
68247;SDS011;55064;49.636;12.164;2022-08-18T00:11:07;10.57;;;6.60;;
68247;SDS011;55064;49.636;12.164;2022-08-18T00:13:35;11.10;;;6.15;;
68247;SDS011;55064;49.636;12.164;2022-08-18T00:16:03;11.68;;;6.60;;
68247;SDS011;55064;49.636;12.164;2022-08-18T00:18:29;11.77;;;6.50;;
68247;SDS011;55064;49.636;12.164;2022-08-18T00:20:54;9.25;;;6.53;;
68247;SDS011;55064;49.636;12.164;2022-08-18T00:23:20;14.10;;;7.77;;
68247;SDS011;55064;49.636;12.164;2022-08-18T00:25:48;16.53;;;7.87;;
68247;SDS011;55064;49.636;12.164;2022-08-18T00:28:13;14.60;;;7.53;;
68247;SDS011;55064;49.636;12.164;2022-08-18T00:30:41;12.73;;;7.40;;
68247;SDS011;55064;49.636;12.164;2022-08-18T00:33:06;11.73;;;7.67;;
68247;SDS011;55064;49.636;12.164;2022-08-18T00:35:36;12.65;;;6.90;;
68247;SDS011;55064;49.636;12.164;2022-08-18T00:38:05;11.53;;;7.10;;
68247;SDS011;55064;49.636;12.164;2022-08-18T00:40:35;11.50;;;7.07;;
68247;SDS011;55064;49.636;12.164;2022-08-18T00:43:05;13.80;;;6.43;;
68247;SDS011;55064;49.636;12.164;2022-08-18T00:45:44;10.77;;;6.50;;
68247;SDS011;55064;49.636;12.164;2022-08-18T00:48:10;11.57;;;6.85;;
68247;SDS011;55064;49.636;12.164;2022-08-18T00:50:39;10.10;;;6.33;;
68247;SDS011;55064;49.636;12.164;2022-08-18T00:53:15;10.25;;;6.30;;
68247;SDS011;55064;49.636;12.164;2022-08-18T00:55:45;9.70;;;6.35;;
68247;SDS011;55064;49.636;12.164;2022-08-18T00:58:23;9.80;;;6.00;;
68247;SDS011;55064;49.636;12.164;2022-08-18T01:00:57;10.23;;;6.00;;
68247;SDS011;55064;49.636;12.164;2022-08-18T01:03:29;9.67;;;6.03;;
68247;SDS011;55064;49.636;12.164;2022-08-18T01:06:02;10.85;;;6.82;;
68247;SDS011;55064;49.636;12.164;2022-08-18T01:08:31;9.43;;;6.25;;
68247;SDS011;55064;49.636;12.164;2022-08-18T01:11:00;11.33;;;6.60;;
68247;SDS011;55064;49.636;12.164;2022-08-18T01:13:32;9.00;;;6.13;;
68247;SDS011;55064;49.636;12.164;2022-08-18T01:15:58;8.80;;;5.78;;
68247;SDS011;55064;49.636;12.164;2022-08-18T01:18:44;10.05;;;5.82;;
68247;SDS011;55064;49.636;12.164;2022-08-18T01:21:31;8.52;;;5.93;;
68247;SDS011;55064;49.636;12.164;2022-08-18T01:24:19;9.07;;;6.03;;
68247;SDS011;55064;49.636;12.164;2022-08-18T01:27:07;9.93;;;5.70;;
68247;SDS011;55064;49.636;12.164;2022-08-18T01:29:36;9.00;;;5.30;;
68247;SDS011;55064;49.636;12.164;2022-08-18T01:32:01;9.27;;;5.80;;
68247;SDS011;55064;49.636;12.164;2022-08-18T01:34:29;9.90;;;5.70;;
68247;SDS011;55064;49.636;12.164;2022-08-18T01:36:54;8.53;;;5.90;;
68247;SDS011;55064;49.636;12.164;2022-08-18T01:39:21;11.13;;;6.45;;
68247;SDS011;55064;49.636;12.164;2022-08-18T01:41:49;10.83;;;7.23;;
68247;SDS011;55064;49.636;12.164;2022-08-18T01:44:14;11.93;;;6.68;;
68247;SDS011;55064;49.636;12.164;2022-08-18T01:46:43;13.23;;;7.33;;
68247;SDS011;55064;49.636;12.164;2022-08-18T01:49:13;11.40;;;6.80;;
68247;SDS011;55064;49.636;12.164;2022-08-18T01:51:41;11.90;;;6.60;;
68247;SDS011;55064;49.636;12.164;2022-08-18T01:54:10;10.23;;;6.63;;
68247;SDS011;55064;49.636;12.164;2022-08-18T01:56:41;10.82;;;6.75;;
68247;SDS011;55064;49.636;12.164;2022-08-18T01:59:07;9.60;;;6.70;;
68247;SDS011;55064;49.636;12.164;2022-08-18T02:01:38;10.98;;;6.75;;
68247;SDS011;55064;49.636;12.164;2022-08-18T02:04:06;10.35;;;6.80;;
68247;SDS011;55064;49.636;12.164;2022-08-18T02:06:37;10.55;;;6.50;;
68247;SDS011;55064;49.636;12.164;2022-08-18T02:09:04;11.48;;;6.00;;
68247;SDS011;55064;49.636;12.164;2022-08-18T02:11:30;9.87;;;6.60;;
68247;SDS011;55064;49.636;12.164;2022-08-18T02:13:55;11.47;;;6.60;;
68247;SDS011;55064;49.636;12.164;2022-08-18T02:16:20;11.60;;;6.40;;
68247;SDS011;55064;49.636;12.164;2022-08-18T02:18:48;11.37;;;5.60;;
68247;SDS011;55064;49.636;12.164;2022-08-18T02:21:15;10.40;;;6.53;;
68247;SDS011;55064;49.636;12.164;2022-08-18T02:23:43;12.33;;;6.50;;
68247;SDS011;55064;49.636;12.164;2022-08-18T02:26:12;11.50;;;6.55;;
68247;SDS011;55064;49.636;12.164;2022-08-18T02:28:39;10.40;;;6.28;;
68247;SDS011;55064;49.636;12.164;2022-08-18T02:31:06;17.87;;;7.03;;
68247;SDS011;55064;49.636;12.164;2022-08-18T02:33:36;12.48;;;6.30;;
68247;SDS011;55064;49.636;12.164;2022-08-18T02:36:02;9.48;;;6.20;;
68247;SDS011;55064;49.636;12.164;2022-08-18T02:38:33;9.65;;;6.20;;
68247;SDS011;55064;49.636;12.164;2022-08-18T02:41:02;13.63;;;6.10;;
68247;SDS011;55064;49.636;12.164;2022-08-18T02:43:31;11.60;;;6.68;;
68247;SDS011;55064;49.636;12.164;2022-08-18T02:45:57;10.30;;;5.97;;
68247;SDS011;55064;49.636;12.164;2022-08-18T02:48:22;10.75;;;6.10;;
68247;SDS011;55064;49.636;12.164;2022-08-18T02:51:07;12.25;;;5.70;;
68247;SDS011;55064;49.636;12.164;2022-08-18T02:53:35;9.97;;;6.00;;
68247;SDS011;55064;49.636;12.164;2022-08-18T02:56:15;13.75;;;6.05;;
68247;SDS011;55064;49.636;12.164;2022-08-18T02:58:50;8.73;;;5.72;;
68247;SDS011;55064;49.636;12.164;2022-08-18T03:01:24;9.80;;;5.35;;
68247;SDS011;55064;49.636;12.164;2022-08-18T03:03:55;9.10;;;5.60;;
68247;SDS011;55064;49.636;12.164;2022-08-18T03:06:22;9.17;;;5.80;;
68247;SDS011;55064;49.636;12.164;2022-08-18T03:08:51;10.52;;;5.78;;
68247;SDS011;55064;49.636;12.164;2022-08-18T03:11:24;10.80;;;5.72;;
68247;SDS011;55064;49.636;12.164;2022-08-18T03:13:51;9.63;;;5.28;;
68247;SDS011;55064;49.636;12.164;2022-08-18T03:16:17;8.10;;;5.30;;
68247;SDS011;55064;49.636;12.164;2022-08-18T03:18:43;10.23;;;5.32;;
68247;SDS011;55064;49.636;12.164;2022-08-18T03:21:15;8.02;;;5.50;;
68247;SDS011;55064;49.636;12.164;2022-08-18T03:23:45;9.45;;;5.60;;
68247;SDS011;55064;49.636;12.164;2022-08-18T03:26:17;11.20;;;6.00;;
68247;SDS011;55064;49.636;12.164;2022-08-18T03:28:48;10.50;;;5.27;;
68247;SDS011;55064;49.636;12.164;2022-08-18T03:31:20;10.75;;;5.25;;
68247;SDS011;55064;49.636;12.164;2022-08-18T03:33:48;9.85;;;5.32;;
68247;SDS011;55064;49.636;12.164;2022-08-18T03:36:21;8.20;;;5.50;;
68247;SDS011;55064;49.636;12.164;2022-08-18T03:38:50;9.15;;;5.30;;
68247;SDS011;55064;49.636;12.164;2022-08-18T03:41:20;9.83;;;5.77;;
68247;SDS011;55064;49.636;12.164;2022-08-18T03:43:52;10.68;;;5.20;;
68247;SDS011;55064;49.636;12.164;2022-08-18T03:46:19;8.73;;;5.75;;
68247;SDS011;55064;49.636;12.164;2022-08-18T03:48:46;9.27;;;5.43;;
68247;SDS011;55064;49.636;12.164;2022-08-18T03:51:17;9.77;;;5.72;;
68247;SDS011;55064;49.636;12.164;2022-08-18T03:53:45;14.17;;;5.73;;
68247;SDS011;55064;49.636;12.164;2022-08-18T03:56:13;9.65;;;5.18;;
68247;SDS011;55064;49.636;12.164;2022-08-18T03:58:45;7.90;;;5.07;;
68247;SDS011;55064;49.636;12.164;2022-08-18T04:01:12;9.68;;;5.60;;
68247;SDS011;55064;49.636;12.164;2022-08-18T04:03:42;8.93;;;5.30;;
68247;SDS011;55064;49.636;12.164;2022-08-18T04:06:18;11.43;;;5.77;;
68247;SDS011;55064;49.636;12.164;2022-08-18T04:08:47;10.73;;;5.00;;
68247;SDS011;55064;49.636;12.164;2022-08-18T04:11:17;9.10;;;5.32;;
68247;SDS011;55064;49.636;12.164;2022-08-18T04:13:43;8.55;;;5.07;;
68247;SDS011;55064;49.636;12.164;2022-08-18T04:16:09;11.20;;;5.60;;
68247;SDS011;55064;49.636;12.164;2022-08-18T04:18:36;9.32;;;5.28;;
68247;SDS011;55064;49.636;12.164;2022-08-18T04:21:03;10.33;;;5.37;;
68247;SDS011;55064;49.636;12.164;2022-08-18T04:23:35;9.73;;;5.30;;
68247;SDS011;55064;49.636;12.164;2022-08-18T04:26:04;10.47;;;5.37;;
68247;SDS011;55064;49.636;12.164;2022-08-18T04:28:31;12.63;;;5.57;;
68247;SDS011;55064;49.636;12.164;2022-08-18T04:30:58;9.23;;;5.80;;
68247;SDS011;55064;49.636;12.164;2022-08-18T04:33:24;11.03;;;5.93;;
68247;SDS011;55064;49.636;12.164;2022-08-18T04:35:54;10.02;;;5.28;;
68247;SDS011;55064;49.636;12.164;2022-08-18T04:38:22;13.63;;;5.80;;
68247;SDS011;55064;49.636;12.164;2022-08-18T04:40:48;9.45;;;5.20;;
68247;SDS011;55064;49.636;12.164;2022-08-18T04:43:16;12.20;;;5.68;;
68247;SDS011;55064;49.636;12.164;2022-08-18T04:45:43;9.43;;;5.33;;
68247;SDS011;55064;49.636;12.164;2022-08-18T04:48:12;9.52;;;5.38;;
68247;SDS011;55064;49.636;12.164;2022-08-18T04:50:42;8.93;;;5.15;;
68247;SDS011;55064;49.636;12.164;2022-08-18T04:53:08;8.87;;;5.20;;
68247;SDS011;55064;49.636;12.164;2022-08-18T04:55:53;9.68;;;5.50;;
68247;SDS011;55064;49.636;12.164;2022-08-18T04:58:23;10.00;;;5.60;;
68247;SDS011;55064;49.636;12.164;2022-08-18T05:00:57;8.90;;;5.60;;
68247;SDS011;55064;49.636;12.164;2022-08-18T05:03:26;9.60;;;5.40;;
68247;SDS011;55064;49.636;12.164;2022-08-18T05:05:53;8.83;;;5.20;;
68247;SDS011;55064;49.636;12.164;2022-08-18T05:08:22;9.05;;;5.20;;
68247;SDS011;55064;49.636;12.164;2022-08-18T05:10:55;9.05;;;4.90;;
68247;SDS011;55064;49.636;12.164;2022-08-18T05:13:25;7.70;;;5.32;;
68247;SDS011;55064;49.636;12.164;2022-08-18T05:15:54;14.07;;;5.40;;
68247;SDS011;55064;49.636;12.164;2022-08-18T05:18:22;10.40;;;5.30;;
68247;SDS011;55064;49.636;12.164;2022-08-18T05:20:55;9.90;;;5.32;;
68247;SDS011;55064;49.636;12.164;2022-08-18T05:23:21;8.93;;;4.77;;
68247;SDS011;55064;49.636;12.164;2022-08-18T05:25:47;9.15;;;5.22;;
68247;SDS011;55064;49.636;12.164;2022-08-18T05:28:16;9.27;;;5.15;;
68247;SDS011;55064;49.636;12.164;2022-08-18T05:30:42;10.18;;;5.63;;
68247;SDS011;55064;49.636;12.164;2022-08-18T05:33:09;10.70;;;5.70;;
68247;SDS011;55064;49.636;12.164;2022-08-18T05:35:48;11.37;;;5.67;;
68247;SDS011;55064;49.636;12.164;2022-08-18T05:41:08;10.77;;;5.30;;
68247;SDS011;55064;49.636;12.164;2022-08-18T05:43:44;9.10;;;5.45;;
68247;SDS011;55064;49.636;12.164;2022-08-18T05:46:15;8.70;;;5.38;;
68247;SDS011;55064;49.636;12.164;2022-08-18T05:48:41;9.93;;;5.23;;
68247;SDS011;55064;49.636;12.164;2022-08-18T05:51:18;10.18;;;5.75;;
68247;SDS011;55064;49.636;12.164;2022-08-18T05:53:54;9.93;;;5.30;;
68247;SDS011;55064;49.636;12.164;2022-08-18T05:56:40;9.63;;;5.20;;
68247;SDS011;55064;49.636;12.164;2022-08-18T05:59:11;9.20;;;5.55;;
68247;SDS011;55064;49.636;12.164;2022-08-18T06:01:52;10.23;;;5.53;;
68247;SDS011;55064;49.636;12.164;2022-08-18T06:06:55;10.30;;;6.10;;
68247;SDS011;55064;49.636;12.164;2022-08-18T06:09:26;10.70;;;5.50;;
68247;SDS011;55064;49.636;12.164;2022-08-18T06:11:56;10.52;;;5.72;;
68247;SDS011;55064;49.636;12.164;2022-08-18T06:14:32;11.57;;;5.38;;
68247;SDS011;55064;49.636;12.164;2022-08-18T06:17:00;8.60;;;5.47;;
68247;SDS011;55064;49.636;12.164;2022-08-18T06:25:30;11.55;;;5.25;;
68247;SDS011;55064;49.636;12.164;2022-08-18T06:28:08;9.68;;;5.60;;
68247;SDS011;55064;49.636;12.164;2022-08-18T06:35:49;13.60;;;5.63;;
68247;SDS011;55064;49.636;12.164;2022-08-18T06:43:44;8.98;;;5.07;;
68247;SDS011;55064;49.636;12.164;2022-08-18T06:46:22;10.83;;;5.57;;
68247;SDS011;55064;49.636;12.164;2022-08-18T06:49:04;11.18;;;5.28;;
68247;SDS011;55064;49.636;12.164;2022-08-18T06:51:34;10.57;;;5.43;;
68247;SDS011;55064;49.636;12.164;2022-08-18T06:54:06;10.43;;;5.70;;
68247;SDS011;55064;49.636;12.164;2022-08-18T06:56:54;9.27;;;5.88;;
68247;SDS011;55064;49.636;12.164;2022-08-18T07:02:00;9.30;;;5.95;;
68247;SDS011;55064;49.636;12.164;2022-08-18T07:07:39;11.32;;;5.22;;
68247;SDS011;55064;49.636;12.164;2022-08-18T07:12:42;10.60;;;5.70;;
68247;SDS011;55064;49.636;12.164;2022-08-18T07:15:08;9.68;;;5.60;;
68247;SDS011;55064;49.636;12.164;2022-08-18T07:17:38;9.93;;;5.88;;
68247;SDS011;55064;49.636;12.164;2022-08-18T07:22:54;10.43;;;6.00;;
68247;SDS011;55064;49.636;12.164;2022-08-18T07:25:31;11.23;;;5.90;;
68247;SDS011;55064;49.636;12.164;2022-08-18T07:28:05;9.35;;;6.18;;
68247;SDS011;55064;49.636;12.164;2022-08-18T07:30:36;9.30;;;5.60;;
68247;SDS011;55064;49.636;12.164;2022-08-18T07:33:08;11.83;;;5.93;;
68247;SDS011;55064;49.636;12.164;2022-08-18T07:38:29;10.55;;;5.90;;
68247;SDS011;55064;49.636;12.164;2022-08-18T07:47:00;12.43;;;6.07;;
68247;SDS011;55064;49.636;12.164;2022-08-18T07:49:33;10.90;;;6.20;;
68247;SDS011;55064;49.636;12.164;2022-08-18T07:59:34;9.97;;;6.40;;
68247;SDS011;55064;49.636;12.164;2022-08-18T08:07:50;10.15;;;6.30;;
68247;SDS011;55064;49.636;12.164;2022-08-18T08:12:57;11.43;;;6.47;;
68247;SDS011;55064;49.636;12.164;2022-08-18T08:15:53;11.02;;;6.28;;
68247;SDS011;55064;49.636;12.164;2022-08-18T08:21:35;9.15;;;6.20;;
68247;SDS011;55064;49.636;12.164;2022-08-18T08:24:19;12.57;;;5.93;;
68247;SDS011;55064;49.636;12.164;2022-08-18T08:40:37;14.52;;;6.20;;
68247;SDS011;55064;49.636;12.164;2022-08-18T08:43:12;9.77;;;6.60;;
68247;SDS011;55064;49.636;12.164;2022-08-18T08:45:44;10.77;;;6.03;;
68247;SDS011;55064;49.636;12.164;2022-08-18T08:50:58;9.00;;;5.63;;
68247;SDS011;55064;49.636;12.164;2022-08-18T08:56:17;11.85;;;6.57;;
68247;SDS011;55064;49.636;12.164;2022-08-18T08:58:48;10.43;;;6.17;;
68247;SDS011;55064;49.636;12.164;2022-08-18T09:06:47;10.27;;;6.07;;
68247;SDS011;55064;49.636;12.164;2022-08-18T09:14:44;9.65;;;6.20;;
68247;SDS011;55064;49.636;12.164;2022-08-18T09:28:05;10.73;;;6.47;;
68247;SDS011;55064;49.636;12.164;2022-08-18T09:30:43;9.80;;;6.35;;
68247;SDS011;55064;49.636;12.164;2022-08-18T09:39:00;9.93;;;6.93;;
68247;SDS011;55064;49.636;12.164;2022-08-18T09:42:08;12.77;;;6.83;;
68247;SDS011;55064;49.636;12.164;2022-08-18T09:49:49;12.00;;;7.32;;
68247;SDS011;55064;49.636;12.164;2022-08-18T10:07:40;12.13;;;7.57;;
68247;SDS011;55064;49.636;12.164;2022-08-18T10:12:54;12.40;;;8.00;;
68247;SDS011;55064;49.636;12.164;2022-08-18T10:20:48;11.30;;;7.40;;
68247;SDS011;55064;49.636;12.164;2022-08-18T10:26:56;12.95;;;7.60;;
68247;SDS011;55064;49.636;12.164;2022-08-18T10:37:00;9.43;;;6.85;;
68247;SDS011;55064;49.636;12.164;2022-08-18T10:44:45;12.38;;;7.78;;
68247;SDS011;55064;49.636;12.164;2022-08-18T10:47:19;9.50;;;7.10;;
68247;SDS011;55064;49.636;12.164;2022-08-18T10:49:52;9.40;;;7.50;;
68247;SDS011;55064;49.636;12.164;2022-08-18T11:00:21;10.27;;;7.00;;
68247;SDS011;55064;49.636;12.164;2022-08-18T11:05:25;12.32;;;7.13;;
68247;SDS011;55064;49.636;12.164;2022-08-18T11:08:05;9.57;;;7.13;;
68247;SDS011;55064;49.636;12.164;2022-08-18T11:10:42;9.25;;;6.82;;
68247;SDS011;55064;49.636;12.164;2022-08-18T11:18:43;10.02;;;6.95;;
68247;SDS011;55064;49.636;12.164;2022-08-18T11:24:10;8.80;;;6.23;;
68247;SDS011;55064;49.636;12.164;2022-08-18T11:26:51;8.68;;;5.60;;
68247;SDS011;55064;49.636;12.164;2022-08-18T11:29:35;9.40;;;6.70;;
68247;SDS011;55064;49.636;12.164;2022-08-18T11:32:09;10.10;;;6.10;;
68247;SDS011;55064;49.636;12.164;2022-08-18T11:37:09;8.67;;;5.60;;
68247;SDS011;55064;49.636;12.164;2022-08-18T11:39:49;7.67;;;5.50;;
68247;SDS011;55064;49.636;12.164;2022-08-18T11:42:26;10.10;;;6.32;;
68247;SDS011;55064;49.636;12.164;2022-08-18T11:45:04;9.52;;;6.78;;
68247;SDS011;55064;49.636;12.164;2022-08-18T11:47:58;9.80;;;6.53;;
68247;SDS011;55064;49.636;12.164;2022-08-18T11:50:46;9.30;;;6.05;;
68247;SDS011;55064;49.636;12.164;2022-08-18T11:53:35;9.65;;;6.00;;
68247;SDS011;55064;49.636;12.164;2022-08-18T11:58:46;11.43;;;6.30;;
68247;SDS011;55064;49.636;12.164;2022-08-18T12:03:56;7.72;;;5.75;;
68247;SDS011;55064;49.636;12.164;2022-08-18T12:06:27;9.95;;;6.13;;
68247;SDS011;55064;49.636;12.164;2022-08-18T12:12:25;9.40;;;5.57;;
68247;SDS011;55064;49.636;12.164;2022-08-18T12:17:28;7.32;;;5.47;;
68247;SDS011;55064;49.636;12.164;2022-08-18T12:19:57;9.32;;;6.00;;
68247;SDS011;55064;49.636;12.164;2022-08-18T12:22:24;8.40;;;5.80;;
68247;SDS011;55064;49.636;12.164;2022-08-18T12:24:52;8.82;;;6.35;;
68247;SDS011;55064;49.636;12.164;2022-08-18T12:27:21;8.73;;;6.03;;
68247;SDS011;55064;49.636;12.164;2022-08-18T12:29:52;8.97;;;6.00;;
68247;SDS011;55064;49.636;12.164;2022-08-18T12:32:23;9.52;;;6.40;;
68247;SDS011;55064;49.636;12.164;2022-08-18T12:34:50;8.35;;;6.05;;
68247;SDS011;55064;49.636;12.164;2022-08-18T12:37:19;7.95;;;6.13;;
68247;SDS011;55064;49.636;12.164;2022-08-18T12:39:47;8.30;;;5.65;;
68247;SDS011;55064;49.636;12.164;2022-08-18T12:42:13;7.53;;;5.50;;
68247;SDS011;55064;49.636;12.164;2022-08-18T12:44:38;7.25;;;5.72;;
68247;SDS011;55064;49.636;12.164;2022-08-18T12:47:15;7.20;;;5.20;;
68247;SDS011;55064;49.636;12.164;2022-08-18T12:49:42;8.35;;;5.45;;
68247;SDS011;55064;49.636;12.164;2022-08-18T12:52:08;7.27;;;5.07;;
68247;SDS011;55064;49.636;12.164;2022-08-18T12:54:34;8.50;;;5.10;;
68247;SDS011;55064;49.636;12.164;2022-08-18T12:57:04;7.47;;;4.67;;
68247;SDS011;55064;49.636;12.164;2022-08-18T12:59:34;8.10;;;5.10;;
68247;SDS011;55064;49.636;12.164;2022-08-18T13:02:00;7.63;;;5.13;;
68247;SDS011;55064;49.636;12.164;2022-08-18T13:04:28;7.20;;;5.75;;
68247;SDS011;55064;49.636;12.164;2022-08-18T13:06:55;7.50;;;5.60;;
68247;SDS011;55064;49.636;12.164;2022-08-18T13:09:23;7.67;;;4.70;;
68247;SDS011;55064;49.636;12.164;2022-08-18T13:11:49;6.68;;;4.85;;
68247;SDS011;55064;49.636;12.164;2022-08-18T13:14:17;6.75;;;4.90;;
68247;SDS011;55064;49.636;12.164;2022-08-18T13:16:43;8.57;;;4.70;;
68247;SDS011;55064;49.636;12.164;2022-08-18T13:19:12;7.95;;;5.60;;
68247;SDS011;55064;49.636;12.164;2022-08-18T13:21:40;8.10;;;5.90;;
68247;SDS011;55064;49.636;12.164;2022-08-18T13:24:08;7.95;;;5.80;;
68247;SDS011;55064;49.636;12.164;2022-08-18T13:26:35;8.77;;;5.90;;
68247;SDS011;55064;49.636;12.164;2022-08-18T13:29:03;9.30;;;5.78;;
68247;SDS011;55064;49.636;12.164;2022-08-18T13:31:29;8.57;;;6.10;;
68247;SDS011;55064;49.636;12.164;2022-08-18T13:33:55;9.15;;;5.85;;
68247;SDS011;55064;49.636;12.164;2022-08-18T13:36:22;7.97;;;5.60;;
68247;SDS011;55064;49.636;12.164;2022-08-18T13:38:49;8.63;;;5.80;;
68247;SDS011;55064;49.636;12.164;2022-08-18T13:41:16;8.00;;;6.43;;
68247;SDS011;55064;49.636;12.164;2022-08-18T13:43:42;7.93;;;6.53;;
68247;SDS011;55064;49.636;12.164;2022-08-18T13:46:12;8.17;;;5.97;;
68247;SDS011;55064;49.636;12.164;2022-08-18T13:48:40;10.37;;;6.43;;
68247;SDS011;55064;49.636;12.164;2022-08-18T13:51:07;8.80;;;5.85;;
68247;SDS011;55064;49.636;12.164;2022-08-18T13:53:36;9.93;;;6.18;;
68247;SDS011;55064;49.636;12.164;2022-08-18T13:56:04;8.70;;;6.18;;
68247;SDS011;55064;49.636;12.164;2022-08-18T13:58:33;8.13;;;5.87;;
68247;SDS011;55064;49.636;12.164;2022-08-18T14:01:01;10.93;;;6.53;;
68247;SDS011;55064;49.636;12.164;2022-08-18T14:03:33;8.00;;;5.90;;
68247;SDS011;55064;49.636;12.164;2022-08-18T14:06:04;8.07;;;6.07;;
68247;SDS011;55064;49.636;12.164;2022-08-18T14:08:29;7.43;;;5.68;;
68247;SDS011;55064;49.636;12.164;2022-08-18T14:10:59;9.27;;;6.07;;
68247;SDS011;55064;49.636;12.164;2022-08-18T14:13:29;7.67;;;5.77;;
68247;SDS011;55064;49.636;12.164;2022-08-18T14:15:57;9.03;;;5.73;;
68247;SDS011;55064;49.636;12.164;2022-08-18T14:18:23;10.70;;;6.15;;
68247;SDS011;55064;49.636;12.164;2022-08-18T14:20:50;7.80;;;5.70;;
68247;SDS011;55064;49.636;12.164;2022-08-18T14:23:34;8.67;;;6.20;;
68247;SDS011;55064;49.636;12.164;2022-08-18T14:26:21;9.47;;;5.87;;
68247;SDS011;55064;49.636;12.164;2022-08-18T14:29:07;8.50;;;6.10;;
68247;SDS011;55064;49.636;12.164;2022-08-18T14:31:33;8.73;;;6.20;;
68247;SDS011;55064;49.636;12.164;2022-08-18T14:34:03;8.00;;;6.50;;
68247;SDS011;55064;49.636;12.164;2022-08-18T14:36:31;8.25;;;5.90;;
68247;SDS011;55064;49.636;12.164;2022-08-18T14:38:59;8.70;;;5.70;;
68247;SDS011;55064;49.636;12.164;2022-08-18T14:41:28;7.70;;;5.43;;
68247;SDS011;55064;49.636;12.164;2022-08-18T14:43:56;8.27;;;5.47;;
68247;SDS011;55064;49.636;12.164;2022-08-18T14:46:25;9.73;;;5.90;;
68247;SDS011;55064;49.636;12.164;2022-08-18T14:48:52;7.88;;;6.05;;
68247;SDS011;55064;49.636;12.164;2022-08-18T14:51:17;8.30;;;5.87;;
68247;SDS011;55064;49.636;12.164;2022-08-18T14:53:43;8.30;;;6.00;;
68247;SDS011;55064;49.636;12.164;2022-08-18T14:56:11;7.75;;;5.85;;
68247;SDS011;55064;49.636;12.164;2022-08-18T14:58:36;10.45;;;5.78;;
68247;SDS011;55064;49.636;12.164;2022-08-18T15:01:05;9.95;;;5.63;;
68247;SDS011;55064;49.636;12.164;2022-08-18T15:03:37;9.20;;;5.60;;
68247;SDS011;55064;49.636;12.164;2022-08-18T15:06:04;9.90;;;6.23;;
68247;SDS011;55064;49.636;12.164;2022-08-18T15:08:30;9.63;;;5.55;;
68247;SDS011;55064;49.636;12.164;2022-08-18T15:10:58;8.60;;;5.90;;
68247;SDS011;55064;49.636;12.164;2022-08-18T15:13:30;10.80;;;6.25;;
68247;SDS011;55064;49.636;12.164;2022-08-18T15:15:56;9.43;;;5.80;;
68247;SDS011;55064;49.636;12.164;2022-08-18T15:18:21;10.90;;;6.27;;
68247;SDS011;55064;49.636;12.164;2022-08-18T15:20:49;11.18;;;6.88;;
68247;SDS011;55064;49.636;12.164;2022-08-18T15:23:34;9.05;;;6.10;;
68247;SDS011;55064;49.636;12.164;2022-08-18T15:26:19;9.75;;;6.05;;
68247;SDS011;55064;49.636;12.164;2022-08-18T15:28:48;9.97;;;5.80;;
68247;SDS011;55064;49.636;12.164;2022-08-18T15:31:13;8.93;;;5.60;;
68247;SDS011;55064;49.636;12.164;2022-08-18T15:33:38;8.10;;;5.50;;
68247;SDS011;55064;49.636;12.164;2022-08-18T15:36:04;7.87;;;5.77;;
68247;SDS011;55064;49.636;12.164;2022-08-18T15:38:29;10.57;;;5.72;;
68247;SDS011;55064;49.636;12.164;2022-08-18T15:40:58;9.40;;;6.00;;
68247;SDS011;55064;49.636;12.164;2022-08-18T15:43:25;8.40;;;5.50;;
68247;SDS011;55064;49.636;12.164;2022-08-18T15:45:58;7.47;;;5.53;;
68247;SDS011;55064;49.636;12.164;2022-08-18T15:48:25;7.83;;;5.43;;
68247;SDS011;55064;49.636;12.164;2022-08-18T15:50:52;8.67;;;5.07;;
68247;SDS011;55064;49.636;12.164;2022-08-18T15:53:18;11.18;;;5.47;;
68247;SDS011;55064;49.636;12.164;2022-08-18T15:55:47;9.15;;;5.63;;
68247;SDS011;55064;49.636;12.164;2022-08-18T15:58:12;7.73;;;5.37;;
68247;SDS011;55064;49.636;12.164;2022-08-18T16:00:39;10.80;;;5.32;;
68247;SDS011;55064;49.636;12.164;2022-08-18T16:03:07;11.40;;;6.00;;
68247;SDS011;55064;49.636;12.164;2022-08-18T16:05:39;8.67;;;5.80;;
68247;SDS011;55064;49.636;12.164;2022-08-18T16:08:12;9.73;;;5.70;;
68247;SDS011;55064;49.636;12.164;2022-08-18T16:10:38;8.55;;;5.93;;
68247;SDS011;55064;49.636;12.164;2022-08-18T16:13:04;9.63;;;6.32;;
68247;SDS011;55064;49.636;12.164;2022-08-18T16:15:36;8.60;;;6.00;;
68247;SDS011;55064;49.636;12.164;2022-08-18T16:18:06;8.50;;;5.90;;
68247;SDS011;55064;49.636;12.164;2022-08-18T16:20:35;9.70;;;6.10;;
68247;SDS011;55064;49.636;12.164;2022-08-18T16:23:04;8.83;;;6.03;;
68247;SDS011;55064;49.636;12.164;2022-08-18T16:25:32;7.97;;;6.10;;
68247;SDS011;55064;49.636;12.164;2022-08-18T16:27:58;8.95;;;5.97;;
68247;SDS011;55064;49.636;12.164;2022-08-18T16:30:29;9.13;;;6.13;;
68247;SDS011;55064;49.636;12.164;2022-08-18T16:32:59;8.90;;;6.07;;
68247;SDS011;55064;49.636;12.164;2022-08-18T16:35:27;8.93;;;6.20;;
68247;SDS011;55064;49.636;12.164;2022-08-18T16:37:52;9.10;;;6.22;;
68247;SDS011;55064;49.636;12.164;2022-08-18T16:40:20;10.23;;;6.60;;
68247;SDS011;55064;49.636;12.164;2022-08-18T16:42:52;9.93;;;6.75;;
68247;SDS011;55064;49.636;12.164;2022-08-18T16:45:20;8.68;;;6.45;;
68247;SDS011;55064;49.636;12.164;2022-08-18T16:47:49;8.70;;;6.70;;
68247;SDS011;55064;49.636;12.164;2022-08-18T16:50:15;10.30;;;6.83;;
68247;SDS011;55064;49.636;12.164;2022-08-18T16:52:42;10.77;;;7.03;;
68247;SDS011;55064;49.636;12.164;2022-08-18T16:55:08;9.57;;;7.10;;
68247;SDS011;55064;49.636;12.164;2022-08-18T16:57:37;9.70;;;6.57;;
68247;SDS011;55064;49.636;12.164;2022-08-18T17:00:24;10.18;;;6.82;;
68247;SDS011;55064;49.636;12.164;2022-08-18T17:03:08;10.23;;;7.60;;
68247;SDS011;55064;49.636;12.164;2022-08-18T17:06:03;10.27;;;7.30;;
68247;SDS011;55064;49.636;12.164;2022-08-18T17:08:35;10.37;;;7.03;;
68247;SDS011;55064;49.636;12.164;2022-08-18T17:11:05;9.60;;;7.18;;
68247;SDS011;55064;49.636;12.164;2022-08-18T17:13:36;11.85;;;7.95;;
68247;SDS011;55064;49.636;12.164;2022-08-18T17:16:06;12.20;;;7.57;;
68247;SDS011;55064;49.636;12.164;2022-08-18T17:18:33;12.13;;;7.80;;
68247;SDS011;55064;49.636;12.164;2022-08-18T17:21:00;9.97;;;7.53;;
68247;SDS011;55064;49.636;12.164;2022-08-18T17:23:28;11.90;;;7.70;;
68247;SDS011;55064;49.636;12.164;2022-08-18T17:25:54;12.15;;;7.80;;
68247;SDS011;55064;49.636;12.164;2022-08-18T17:28:24;11.48;;;7.50;;
68247;SDS011;55064;49.636;12.164;2022-08-18T17:31:13;11.77;;;7.53;;
68247;SDS011;55064;49.636;12.164;2022-08-18T17:33:39;11.83;;;8.00;;
68247;SDS011;55064;49.636;12.164;2022-08-18T17:36:11;10.98;;;8.00;;
68247;SDS011;55064;49.636;12.164;2022-08-18T17:38:45;11.30;;;7.50;;
68247;SDS011;55064;49.636;12.164;2022-08-18T17:41:22;11.97;;;8.27;;
68247;SDS011;55064;49.636;12.164;2022-08-18T17:43:54;12.97;;;7.80;;
68247;SDS011;55064;49.636;12.164;2022-08-18T17:46:29;11.15;;;8.45;;
68247;SDS011;55064;49.636;12.164;2022-08-18T17:49:26;11.43;;;8.20;;
68247;SDS011;55064;49.636;12.164;2022-08-18T17:52:15;10.93;;;7.90;;
68247;SDS011;55064;49.636;12.164;2022-08-18T17:54:44;14.18;;;7.88;;